createdAt,value
2022-11-19T00:02:22.709Z,96098.63
2022-11-19T00:04:55.789Z,96093.41
2022-11-19T00:07:24.264Z,96089.22
2022-11-19T00:09:54.360Z,96088.00
2022-11-19T00:12:46.427Z,96086.94
2022-11-19T00:15:16.130Z,96083.63
2022-11-19T00:17:44.582Z,96089.34
2022-11-19T00:20:14.295Z,96088.22
2022-11-19T00:22:42.832Z,96090.25
2022-11-19T00:25:18.525Z,96088.53
2022-11-19T00:27:48.113Z,96097.38
2022-11-19T00:30:40.846Z,96094.19
2022-11-19T00:33:06.111Z,96096.09
2022-11-19T00:35:34.561Z,96102.03
2022-11-19T00:38:03.211Z,96116.63
2022-11-19T00:40:33.749Z,96095.13
2022-11-19T00:43:19.345Z,96104.00
2022-11-19T00:45:49.048Z,96093.72
2022-11-19T00:48:17.939Z,96096.16
2022-11-19T00:50:46.645Z,96098.81
2022-11-19T00:53:15.147Z,96100.50
2022-11-19T00:55:45.050Z,96105.81
2022-11-19T00:58:13.921Z,96103.22
2022-11-19T01:00:42.356Z,96103.50
2022-11-19T01:03:10.774Z,96103.00
2022-11-19T01:05:39.431Z,96104.63
2022-11-19T01:08:08.266Z,96107.13
2022-11-19T01:10:37.424Z,96106.94
2022-11-19T01:13:24.689Z,96107.94
2022-11-19T01:15:59.082Z,96109.28
2022-11-19T01:18:29.171Z,96108.78
2022-11-19T01:20:57.920Z,96105.53
2022-11-19T01:23:26.641Z,96099.53
2022-11-19T01:26:00.536Z,96110.53
2022-11-19T01:28:31.021Z,96113.53
2022-11-19T01:30:59.636Z,96104.94
2022-11-19T01:33:28.225Z,96103.31
2022-11-19T01:36:00.363Z,96102.50
2022-11-19T01:38:30.123Z,96098.78
2022-11-19T01:40:59.758Z,96101.94
2022-11-19T01:43:46.215Z,96100.94
2022-11-19T01:46:17.273Z,96114.47
2022-11-19T01:48:50.915Z,96114.22
2022-11-19T01:51:24.688Z,96119.91
2022-11-19T01:53:55.730Z,96118.03
2022-11-19T01:56:25.217Z,96123.44
2022-11-19T01:59:00.710Z,96121.28
2022-11-19T02:01:31.003Z,96134.63
2022-11-19T02:04:02.961Z,96135.38
2022-11-19T02:06:32.514Z,96124.63
2022-11-19T02:09:01.033Z,96132.59
2022-11-19T02:12:08.885Z,96137.94
2022-11-19T02:15:03.948Z,96137.69
2022-11-19T02:17:53.971Z,96132.84
2022-11-19T02:21:08.383Z,96143.38
2022-11-19T02:24:33.504Z,96137.03
2022-11-19T02:27:43.392Z,96146.78
2022-11-19T02:30:16.531Z,96138.75
2022-11-19T02:33:00.613Z,96136.91
2022-11-19T02:35:56.754Z,96126.56
2022-11-19T02:38:33.221Z,96138.16
2022-11-19T02:41:30.008Z,96136.34
2022-11-19T02:44:19.772Z,96136.75
2022-11-19T02:46:53.492Z,96136.19
2022-11-19T02:49:27.039Z,96144.28
2022-11-19T02:51:56.599Z,96134.22
2022-11-19T02:54:25.147Z,96131.22
2022-11-19T02:56:58.808Z,96140.50
2022-11-19T02:59:50.925Z,96150.81
2022-11-19T03:02:39.442Z,96147.31
2022-11-19T03:05:16.589Z,96140.28
2022-11-19T03:07:45.522Z,96140.03
2022-11-19T03:10:15.901Z,96137.25
2022-11-19T03:12:52.086Z,96129.34
2022-11-19T03:15:55.758Z,96133.13
2022-11-19T03:18:33.826Z,96143.66
2022-11-19T03:21:09.210Z,96140.72
2022-11-19T03:23:43.467Z,96140.16
2022-11-19T03:26:25.544Z,96137.63
2022-11-19T03:28:56.674Z,96146.47
2022-11-19T03:31:27.741Z,96146.69
2022-11-19T03:34:03.031Z,96153.41
2022-11-19T03:36:36.763Z,96146.31
2022-11-19T03:39:11.208Z,96139.56
2022-11-19T03:41:42.844Z,96140.63
2022-11-19T03:44:18.065Z,96148.84
2022-11-19T03:46:49.895Z,96127.09
2022-11-19T03:49:24.096Z,96130.59
2022-11-19T03:51:58.410Z,96127.22
2022-11-19T03:54:27.066Z,96138.22
2022-11-19T03:56:57.256Z,96141.75
2022-11-19T03:59:29.674Z,96146.00
2022-11-19T04:02:04.436Z,96139.25
2022-11-19T04:04:37.581Z,96146.50
2022-11-19T04:07:08.529Z,96141.66
2022-11-19T04:09:37.535Z,96146.53
2022-11-19T04:12:09.231Z,96140.03
2022-11-19T04:14:37.740Z,96136.13
2022-11-19T04:17:06.153Z,96138.91
2022-11-19T04:19:38.127Z,96137.81
2022-11-19T04:22:06.678Z,96127.28
2022-11-19T04:24:36.221Z,96131.66
2022-11-19T04:27:05.069Z,96141.25
2022-11-19T04:29:33.489Z,96138.00
2022-11-19T04:32:01.906Z,96142.97
2022-11-19T04:34:31.160Z,96136.94
2022-11-19T04:37:00.947Z,96132.09
2022-11-19T04:39:29.353Z,96127.63
2022-11-19T04:41:57.787Z,96132.88
2022-11-19T04:44:26.229Z,96114.03
2022-11-19T04:46:54.626Z,96122.31
2022-11-19T04:49:24.331Z,96124.47
2022-11-19T04:51:53.938Z,96136.22
2022-11-19T04:54:23.755Z,96135.84
2022-11-19T04:56:52.184Z,96129.81
2022-11-19T04:59:20.847Z,96134.66
2022-11-19T05:01:50.281Z,96139.44
2022-11-19T05:04:20.073Z,96145.09
2022-11-19T05:06:48.510Z,96146.03
2022-11-19T05:09:17.267Z,96144.09
2022-11-19T05:11:47.584Z,96152.69
2022-11-19T05:14:15.994Z,96148.94
2022-11-19T05:16:44.520Z,96152.16
2022-11-19T05:19:12.938Z,96151.56
2022-11-19T05:21:41.369Z,96149.13
2022-11-19T05:24:10.455Z,96143.34
2022-11-19T05:26:38.853Z,96151.78
2022-11-19T05:29:08.658Z,96146.97
2022-11-19T05:31:37.073Z,96157.53
2022-11-19T05:34:05.559Z,96157.34
2022-11-19T05:36:34.057Z,96152.19
2022-11-19T05:39:02.640Z,96155.94
2022-11-19T05:41:31.364Z,96153.06
2022-11-19T05:43:59.772Z,96151.16
2022-11-19T05:46:29.711Z,96150.44
2022-11-19T05:48:58.129Z,96157.22
2022-11-19T05:51:26.593Z,96149.28
2022-11-19T05:53:55.011Z,96151.91
2022-11-19T05:56:23.501Z,96155.75
2022-11-19T05:58:51.886Z,96154.97
2022-11-19T06:01:27.078Z,96155.47
2022-11-19T06:03:57.321Z,96164.66
2022-11-19T06:06:26.573Z,96147.75
2022-11-19T06:08:55.214Z,96158.91
2022-11-19T06:11:41.009Z,96151.50
2022-11-19T06:14:10.518Z,96160.31
2022-11-19T06:16:40.109Z,96165.19
2022-11-19T06:19:10.039Z,96163.66
2022-11-19T06:21:38.487Z,96165.50
2022-11-19T06:24:07.708Z,96169.97
2022-11-19T06:26:36.200Z,96168.63
2022-11-19T06:29:06.117Z,96169.34
2022-11-19T06:31:35.979Z,96168.31
2022-11-19T06:34:04.673Z,96179.03
2022-11-19T06:36:40.393Z,96177.19
2022-11-19T06:39:10.763Z,96186.22
2022-11-19T06:41:39.172Z,96197.22
2022-11-19T06:44:07.609Z,96194.63
2022-11-19T06:46:36.018Z,96202.97
2022-11-19T06:49:05.870Z,96200.34
2022-11-19T06:51:35.860Z,96214.16
2022-11-19T06:54:04.538Z,96207.38
2022-11-19T06:56:33.089Z,96217.03
2022-11-19T06:59:01.516Z,96215.53
2022-11-19T07:01:30.295Z,96230.06
2022-11-19T07:03:58.910Z,96223.03
2022-11-19T07:06:27.435Z,96230.38
2022-11-19T07:08:57.305Z,96229.81
2022-11-19T07:11:28.590Z,96236.59
2022-11-19T07:13:59.653Z,96238.47
2022-11-19T07:16:32.124Z,96246.56
2022-11-19T07:19:02.075Z,96259.63
2022-11-19T07:21:31.892Z,96258.38
2022-11-19T07:24:05.505Z,96260.66
2022-11-19T07:26:34.681Z,96248.66
2022-11-19T07:29:05.122Z,96265.34
2022-11-19T07:31:34.358Z,96262.28
2022-11-19T07:34:03.088Z,96259.38
2022-11-19T07:36:32.572Z,96267.28
2022-11-19T07:39:02.625Z,96264.00
2022-11-19T07:41:48.196Z,96267.84
2022-11-19T07:44:16.604Z,96273.97
2022-11-19T07:46:45.089Z,96281.31
2022-11-19T07:49:14.064Z,96275.38
2022-11-19T07:51:42.681Z,96271.69
2022-11-19T07:54:14.208Z,96277.91
2022-11-19T07:56:43.891Z,96278.72
2022-11-19T07:59:13.000Z,96279.69
2022-11-19T08:01:41.452Z,96285.72
2022-11-19T08:04:10.090Z,96276.50
2022-11-19T08:06:39.694Z,96272.97
2022-11-19T08:09:15.590Z,96270.91
2022-11-19T08:11:44.062Z,96270.13
2022-11-19T08:14:22.493Z,96280.94
2022-11-19T08:17:07.950Z,96272.97
2022-11-19T08:19:37.661Z,96267.06
2022-11-19T08:22:06.120Z,96269.84
2022-11-19T08:24:35.938Z,96277.34
2022-11-19T08:27:05.402Z,96272.75
2022-11-19T08:29:34.118Z,96276.53
2022-11-19T08:32:02.669Z,96276.31
2022-11-19T08:34:32.931Z,96285.81
2022-11-19T08:37:01.407Z,96279.78
2022-11-19T08:39:30.772Z,96271.63
2022-11-19T08:42:18.070Z,96268.88
2022-11-19T08:44:46.571Z,96285.06
2022-11-19T08:47:15.013Z,96279.09
2022-11-19T08:49:43.436Z,96279.09
2022-11-19T08:52:11.887Z,96282.38
2022-11-19T08:54:40.451Z,96276.50
2022-11-19T08:57:10.266Z,96282.38
2022-11-19T08:59:38.752Z,96279.75
2022-11-19T09:02:07.490Z,96282.16
2022-11-19T09:04:35.973Z,96279.09
2022-11-19T09:07:04.652Z,96287.41
2022-11-19T09:09:33.322Z,96290.06
2022-11-19T09:12:01.783Z,96291.84
2022-11-19T09:14:31.776Z,96293.75
2022-11-19T09:17:00.274Z,96290.16
2022-11-19T09:19:28.849Z,96284.38
2022-11-19T09:21:57.349Z,96286.47
2022-11-19T09:24:25.952Z,96285.31
2022-11-19T09:27:00.935Z,96288.91
2022-11-19T09:29:31.957Z,96285.81
2022-11-19T09:32:00.372Z,96284.22
2022-11-19T09:34:29.089Z,96295.91
2022-11-19T09:36:58.400Z,96302.03
2022-11-19T09:39:27.248Z,96304.94
2022-11-19T09:42:10.225Z,96302.84
2022-11-19T09:45:11.929Z,96309.69
2022-11-19T09:48:04.349Z,96317.56
2022-11-19T09:50:38.831Z,96305.94
2022-11-19T09:53:14.787Z,96298.59
2022-11-19T09:55:46.283Z,96294.63
2022-11-19T09:58:18.704Z,96294.38
2022-11-19T10:00:48.550Z,96302.09
2022-11-19T10:03:22.638Z,96296.59
2022-11-19T10:06:10.530Z,96295.72
2022-11-19T10:09:04.755Z,96293.09
2022-11-19T10:11:49.154Z,96302.06
2022-11-19T10:14:39.073Z,96299.03
2022-11-19T10:17:23.427Z,96286.47
2022-11-19T10:20:19.744Z,96294.09
2022-11-19T10:22:57.328Z,96283.25
2022-11-19T10:25:33.570Z,96280.78
2022-11-19T10:28:10.562Z,96278.13
2022-11-19T10:30:42.238Z,96286.94
2022-11-19T10:33:20.937Z,96270.47
2022-11-19T10:35:55.383Z,96275.69
2022-11-19T10:38:28.048Z,96270.38
2022-11-19T10:41:02.471Z,96270.19
2022-11-19T10:43:38.034Z,96268.66
2022-11-19T10:46:10.966Z,96269.59
2022-11-19T10:48:44.881Z,96267.50
2022-11-19T10:51:19.539Z,96266.28
2022-11-19T10:53:48.730Z,96260.47
2022-11-19T10:56:22.056Z,96254.16
2022-11-19T10:58:55.445Z,96256.72
2022-11-19T11:01:32.813Z,96265.00
2022-11-19T11:04:10.906Z,96259.66
2022-11-19T11:06:55.989Z,96258.53
2022-11-19T11:09:32.769Z,96237.34
2022-11-19T11:12:29.186Z,96245.16
2022-11-19T11:15:09.750Z,96241.59
2022-11-19T11:17:39.098Z,96242.88
2022-11-19T11:20:27.053Z,96247.22
2022-11-19T11:23:07.533Z,96233.63
2022-11-19T11:25:38.890Z,96245.06
2022-11-19T11:28:12.277Z,96239.81
2022-11-19T11:30:55.842Z,96242.59
2022-11-19T11:33:37.682Z,96243.09
2022-11-19T11:36:13.037Z,96247.91
2022-11-19T11:38:45.550Z,96242.84
2022-11-19T11:44:08.937Z,96241.69
2022-11-19T11:46:44.034Z,96256.13
2022-11-19T11:49:26.483Z,96238.16
2022-11-19T11:52:15.618Z,96236.41
2022-11-19T11:55:01.382Z,96233.34
2022-11-19T11:57:34.093Z,96227.00
2022-11-19T12:00:27.037Z,96226.13
2022-11-19T12:03:07.483Z,96224.78
2022-11-19T12:05:50.529Z,96229.97
2022-11-19T12:08:44.726Z,96213.09
2022-11-19T12:11:22.696Z,96224.00
2022-11-19T12:14:00.327Z,96222.91
2022-11-19T12:16:48.402Z,96214.72
2022-11-19T12:19:46.944Z,96219.38
2022-11-19T12:22:25.083Z,96222.19
2022-11-19T12:25:22.278Z,96214.94
2022-11-19T12:28:15.309Z,96219.25
2022-11-19T12:31:00.225Z,96222.25
2022-11-19T12:33:57.317Z,96206.78
2022-11-19T12:36:37.380Z,96217.09
2022-11-19T12:39:20.870Z,96217.28
2022-11-19T12:42:13.355Z,96218.22
2022-11-19T12:44:51.962Z,96216.50
2022-11-19T12:47:38.515Z,96218.41
2022-11-19T12:50:24.304Z,96225.31
2022-11-19T12:53:30.041Z,96235.09
2022-11-19T12:56:14.568Z,96209.38
2022-11-19T12:58:54.509Z,96226.19
2022-11-19T13:01:27.528Z,96225.13
2022-11-19T13:04:07.762Z,96229.13
2022-11-19T13:06:47.009Z,96222.47
2022-11-19T13:09:50.819Z,96219.84
2022-11-19T13:12:24.850Z,96209.25
2022-11-19T13:14:59.012Z,96219.88
2022-11-19T13:17:32.057Z,96210.06
2022-11-19T13:20:06.509Z,96207.13
2022-11-19T13:22:38.687Z,96213.84
2022-11-19T13:25:21.659Z,96204.66
2022-11-19T13:27:52.886Z,96208.47
2022-11-19T13:30:26.752Z,96211.94
2022-11-19T13:33:06.642Z,96205.44
2022-11-19T13:35:45.563Z,96207.31
2022-11-19T13:38:20.685Z,96208.09
2022-11-19T13:40:54.756Z,96205.63
2022-11-19T13:43:41.595Z,96203.84
2022-11-19T13:46:22.150Z,96195.88
2022-11-19T13:48:58.177Z,96197.34
2022-11-19T13:51:35.814Z,96197.09
2022-11-19T13:54:07.721Z,96197.53
2022-11-19T13:56:43.644Z,96189.41
2022-11-19T13:59:32.934Z,96191.53
2022-11-19T14:02:47.433Z,96190.72
2022-11-19T14:05:45.655Z,96188.97
2022-11-19T14:08:32.190Z,96199.41
2022-11-19T14:11:17.333Z,96199.22
2022-11-19T14:14:29.499Z,96202.88
2022-11-19T14:17:23.882Z,96206.47
2022-11-19T14:20:14.047Z,96206.03
2022-11-19T14:23:01.809Z,96202.09
2022-11-19T14:26:04.768Z,96209.66
2022-11-19T14:28:45.451Z,96211.47
2022-11-19T14:31:22.100Z,96223.59
2022-11-19T14:34:04.067Z,96211.53
2022-11-19T14:36:46.501Z,96214.31
2022-11-19T14:39:25.086Z,96217.63
2022-11-19T14:42:15.786Z,96218.59
2022-11-19T14:44:45.077Z,96219.16
2022-11-19T14:47:35.320Z,96224.44
2022-11-19T14:50:07.965Z,96239.03
2022-11-19T14:52:51.458Z,96231.72
2022-11-19T14:55:24.269Z,96235.38
2022-11-19T14:57:59.844Z,96236.94
2022-11-19T15:00:32.887Z,96228.38
2022-11-19T15:03:04.071Z,96233.94
2022-11-19T15:05:41.115Z,96227.94
2022-11-19T15:08:47.753Z,96237.06
2022-11-19T15:11:17.354Z,96244.00
2022-11-19T15:13:47.197Z,96245.38
2022-11-19T15:16:18.599Z,96229.03
2022-11-19T15:19:20.651Z,96255.22
2022-11-19T15:22:26.682Z,96259.84
2022-11-19T15:25:33.038Z,96245.72
2022-11-19T15:28:13.030Z,96261.47
2022-11-19T15:31:09.905Z,96250.84
2022-11-19T15:34:15.086Z,96249.41
2022-11-19T15:36:46.584Z,96247.47
2022-11-19T15:39:23.301Z,96247.28
2022-11-19T15:42:03.806Z,96262.53
2022-11-19T15:44:40.720Z,96259.50
2022-11-19T15:47:15.779Z,96257.19
2022-11-19T15:49:45.911Z,96252.28
2022-11-19T15:52:22.975Z,96257.31
2022-11-19T15:54:51.415Z,96256.13
2022-11-19T15:57:24.728Z,96277.63
2022-11-19T15:59:59.840Z,96265.50
2022-11-19T16:02:37.478Z,96278.47
2022-11-19T16:05:06.955Z,96272.16
2022-11-19T16:07:35.889Z,96289.06
2022-11-19T16:10:26.040Z,96280.03
2022-11-19T16:13:15.335Z,96276.34
2022-11-19T16:16:09.041Z,96281.28
2022-11-19T16:18:47.494Z,96281.78
2022-11-19T16:21:20.499Z,96281.69
2022-11-19T16:24:06.451Z,96289.19
2022-11-19T16:26:38.261Z,96291.63
2022-11-19T16:29:08.629Z,96291.28
2022-11-19T16:31:37.187Z,96301.00
2022-11-19T16:34:06.017Z,96307.41
2022-11-19T16:36:34.985Z,96305.81
2022-11-19T16:39:05.384Z,96302.25
2022-11-19T16:41:52.846Z,96305.59
2022-11-19T16:44:29.314Z,96314.84
2022-11-19T16:46:57.993Z,96307.63
2022-11-19T16:49:33.185Z,96310.78
2022-11-19T16:52:03.047Z,96313.50
2022-11-19T16:54:51.282Z,96319.72
2022-11-19T16:57:23.309Z,96311.63
2022-11-19T17:00:05.083Z,96324.66
2022-11-19T17:02:47.246Z,96333.75
2022-11-19T17:05:18.803Z,96328.50
2022-11-19T17:07:50.381Z,96336.16
2022-11-19T17:10:30.598Z,96329.72
2022-11-19T17:13:02.807Z,96335.31
2022-11-19T17:15:39.580Z,96339.88
2022-11-19T17:18:19.977Z,96337.31
2022-11-19T17:20:52.723Z,96341.88
2022-11-19T17:23:23.451Z,96346.81
2022-11-19T17:25:56.086Z,96351.25
2022-11-19T17:28:36.035Z,96349.53
2022-11-19T17:31:15.976Z,96348.88
2022-11-19T17:33:55.554Z,96353.94
2022-11-19T17:36:25.835Z,96361.53
2022-11-19T17:38:54.862Z,96347.03
2022-11-19T17:41:44.853Z,96361.84
2022-11-19T17:44:36.948Z,96370.34
2022-11-19T17:47:21.820Z,96361.50
2022-11-19T17:49:51.301Z,96368.63
2022-11-19T17:52:26.083Z,96365.13
2022-11-19T17:54:56.929Z,96370.16
2022-11-19T17:57:25.516Z,96360.72
2022-11-19T17:59:54.010Z,96367.25
2022-11-19T18:02:24.455Z,96374.53
2022-11-19T18:04:53.847Z,96374.22
2022-11-19T18:07:22.389Z,96380.66
2022-11-19T18:09:50.943Z,96380.13
2022-11-19T18:12:20.945Z,96392.41
2022-11-19T18:14:49.581Z,96387.38
2022-11-19T18:17:18.029Z,96398.53
2022-11-19T18:19:48.122Z,96407.06
2022-11-19T18:22:20.883Z,96389.22
2022-11-19T18:24:50.443Z,96394.06
2022-11-19T18:27:19.269Z,96395.34
2022-11-19T18:29:47.835Z,96392.91
2022-11-19T18:32:16.952Z,96403.72
2022-11-19T18:34:47.594Z,96404.69
2022-11-19T18:37:16.020Z,96399.03
2022-11-19T18:39:44.534Z,96402.09
2022-11-19T18:42:13.229Z,96401.91
2022-11-19T18:44:43.453Z,96401.06
2022-11-19T18:47:16.225Z,96401.88
2022-11-19T18:49:44.619Z,96414.59
2022-11-19T18:52:15.689Z,96407.47
2022-11-19T18:54:44.272Z,96410.78
2022-11-19T18:57:13.610Z,96399.84
2022-11-19T18:59:42.463Z,96411.91
2022-11-19T19:02:11.905Z,96414.81
2022-11-19T19:04:40.441Z,96411.31
2022-11-19T19:07:08.958Z,96415.84
2022-11-19T19:09:38.971Z,96428.72
2022-11-19T19:12:17.143Z,96430.03
2022-11-19T19:14:47.198Z,96428.50
2022-11-19T19:17:17.006Z,96420.28
2022-11-19T19:19:45.480Z,96414.41
2022-11-19T19:22:13.976Z,96416.03
2022-11-19T19:24:44.229Z,96419.19
2022-11-19T19:27:12.650Z,96427.81
2022-11-19T19:29:41.098Z,96419.94
2022-11-19T19:32:09.665Z,96415.53
2022-11-19T19:34:38.719Z,96432.28
2022-11-19T19:37:07.277Z,96436.66
2022-11-19T19:39:35.695Z,96423.16
2022-11-19T19:42:06.165Z,96433.28
2022-11-19T19:44:34.692Z,96443.75
2022-11-19T19:47:03.142Z,96428.78
2022-11-19T19:49:34.730Z,96431.53
2022-11-19T19:52:06.997Z,96442.41
2022-11-19T19:54:35.462Z,96436.19
2022-11-19T19:57:05.629Z,96438.38
2022-11-19T19:59:34.625Z,96447.16
2022-11-19T20:02:03.507Z,96446.94
2022-11-19T20:04:33.926Z,96442.13
2022-11-19T20:07:02.514Z,96449.44
2022-11-19T20:09:34.085Z,96455.03
2022-11-19T20:12:04.024Z,96453.72
2022-11-19T20:14:32.740Z,96448.44
2022-11-19T20:17:01.442Z,96452.44
2022-11-19T20:19:30.394Z,96452.31
2022-11-19T20:22:00.232Z,96448.66
2022-11-19T20:24:28.750Z,96463.63
2022-11-19T20:26:59.978Z,96468.47
2022-11-19T20:29:30.187Z,96469.13
2022-11-19T20:31:58.623Z,96466.81
2022-11-19T20:34:27.098Z,96471.44
2022-11-19T20:36:59.361Z,96462.34
2022-11-19T20:39:27.954Z,96480.09
2022-11-19T20:42:14.135Z,96463.38
2022-11-19T20:44:46.000Z,96466.91
2022-11-19T20:47:15.309Z,96460.13
2022-11-19T20:49:43.711Z,96466.19
2022-11-19T20:52:13.425Z,96468.16
2022-11-19T20:54:42.490Z,96462.66
2022-11-19T20:57:10.926Z,96467.84
2022-11-19T20:59:39.352Z,96467.47
2022-11-19T21:02:10.924Z,96465.47
2022-11-19T21:04:39.424Z,96469.66
2022-11-19T21:07:08.366Z,96474.28
2022-11-19T21:09:37.897Z,96468.47
2022-11-19T21:12:31.254Z,96461.47
2022-11-19T21:15:00.054Z,96458.50
2022-11-19T21:17:30.078Z,96459.78
2022-11-19T21:19:58.479Z,96453.13
2022-11-19T21:22:27.317Z,96447.91
2022-11-19T21:24:55.758Z,96449.66
2022-11-19T21:27:24.256Z,96442.31
2022-11-19T21:29:52.672Z,96435.06
2022-11-19T21:32:21.376Z,96444.94
2022-11-19T21:34:51.185Z,96459.22
2022-11-19T21:37:19.612Z,96449.56
2022-11-19T21:39:48.049Z,96451.13
2022-11-19T21:42:16.476Z,96450.84
2022-11-19T21:44:45.023Z,96458.34
2022-11-19T21:47:13.584Z,96450.63
2022-11-19T21:49:44.798Z,96454.94
2022-11-19T21:52:14.685Z,96451.91
2022-11-19T21:54:43.188Z,96462.22
2022-11-19T21:57:11.633Z,96452.38
2022-11-19T21:59:40.070Z,96462.56
2022-11-19T22:02:14.878Z,96461.88
2022-11-19T22:04:43.427Z,96464.84
2022-11-19T22:07:13.498Z,96457.88
2022-11-19T22:09:42.117Z,96466.41
2022-11-19T22:12:10.633Z,96458.81
2022-11-19T22:14:39.049Z,96459.84
2022-11-19T22:17:07.561Z,96449.88
2022-11-19T22:19:36.018Z,96456.66
2022-11-19T22:22:05.439Z,96455.94
2022-11-19T22:24:35.316Z,96465.19
2022-11-19T22:27:03.782Z,96461.25
2022-11-19T22:29:32.225Z,96473.44
2022-11-19T22:32:00.613Z,96467.69
2022-11-19T22:34:29.099Z,96477.88
2022-11-19T22:36:59.351Z,96466.56
2022-11-19T22:39:29.954Z,96467.09
2022-11-19T22:42:00.001Z,96474.25
2022-11-19T22:44:28.455Z,96479.00
2022-11-19T22:46:58.684Z,96474.56
2022-11-19T22:49:27.704Z,96477.53
2022-11-19T22:51:56.296Z,96482.19
2022-11-19T22:54:24.734Z,96485.50
2022-11-19T22:56:53.254Z,96485.31
2022-11-19T22:59:23.399Z,96482.47
2022-11-19T23:01:52.147Z,96482.44
2022-11-19T23:04:20.532Z,96487.66
2022-11-19T23:06:49.041Z,96490.84
2022-11-19T23:09:17.699Z,96490.56
2022-11-19T23:12:03.613Z,96501.81
2022-11-19T23:14:35.351Z,96490.56
2022-11-19T23:17:03.776Z,96494.97
2022-11-19T23:19:32.166Z,96496.25
2022-11-19T23:22:00.588Z,96500.00
2022-11-19T23:24:29.054Z,96496.53
2022-11-19T23:26:57.443Z,96496.06
2022-11-19T23:29:26.238Z,96490.00
2022-11-19T23:31:56.023Z,96487.09
2022-11-19T23:34:24.465Z,96491.09
2022-11-19T23:36:52.978Z,96499.97
2022-11-19T23:39:21.704Z,96491.84
2022-11-19T23:41:50.639Z,96492.50
2022-11-19T23:44:19.234Z,96492.69
2022-11-19T23:46:47.654Z,96500.22
2022-11-19T23:49:17.491Z,96499.91
2022-11-19T23:51:45.917Z,96500.66
2022-11-19T23:54:15.168Z,96502.56
2022-11-19T23:56:43.878Z,96501.63
2022-11-19T23:59:12.525Z,96506.75
